KIPL

Imperial County Airport

Imperial, California, USA
METAR KIPL 191553Z AUTO 25003KT 10SM CLR 09/07 A3032 RMK AO2 SLP268 T00940072
Observed Flight Rules
Jan-19 @ 15:53 UTC (46 minutes ago) Visual Flight Rules
Wind Visibility Clouds
250° at 3 knots 10 miles
  • Clear skies
Temperatures Readings
Current 9°C / 48°F
Dewpoint 7°C / 45°F
Humidity 87%
Altimeter 30.32" Hg
Pressure 1026.8 hPa
Elevation -17
METAR KIPL 191553Z AUTO 25003KT 10SM CLR 09/07 A3032 RMK AO2 SLP268 T00940072
Observed Flight Rules
Jan-19 @ 15:53 UTC
(46 minutes ago)
VFR
Wind Visibility
250° at 3 knots 10 miles
Clouds
  • Clear skies
Temperature Dewpoint
9°C / 48°F 7°C / 45°F
Humidity Altimeter Pressure
87% 30.32" Hg 1026.8 hPa